Time;durP1;ratioP1;P1;durP2;ratioP2;P2;SDS_P1;SDS_P2;PMS_P1;PMS_P2;Temp;Humidity;BMP_temperature;BMP_pressure;BME280_temperature;BME280_humidity;BME280_pressure;Samples;Min_cycle;Max_cycle;Signal;HPM_P1;HPM_P2
2022/09/21 00:00:05;;;;;;;9.70;3.40;;;9.40;99.90;;;;;;5031771;28;20057;-70
2022/09/21 00:02:31;;;;;;;6.30;3.45;;;9.40;99.90;;;;;;5033062;28;20384;-70
2022/09/21 00:04:57;;;;;;;7.20;3.20;;;;;;;;;;5032936;28;20064;-70
2022/09/21 00:07:23;;;;;;;4.18;2.88;;;;;;;;;;5031676;28;20037;-70
2022/09/21 00:09:49;;;;;;;6.35;3.08;;;;;;;;;;5031584;28;20439;-70
2022/09/21 00:12:15;;;;;;;4.40;3.17;;;9.10;99.90;;;;;;5016309;28;20041;-70
2022/09/21 00:14:42;;;;;;;7.25;3.42;;;9.10;99.90;;;;;;5015057;28;20168;-70
2022/09/21 00:17:08;;;;;;;5.35;3.03;;;9.20;99.90;;;;;;5032730;28;20407;-70
2022/09/21 00:19:34;;;;;;;8.00;3.25;;;9.10;99.90;;;;;;5031514;28;20160;-70
2022/09/21 00:22:00;;;;;;;6.53;3.08;;;9.20;99.90;;;;;;5031359;28;20080;-70
2022/09/21 00:24:26;;;;;;;7.38;3.22;;;;;;;;;;5032326;28;20208;-70
2022/09/21 00:26:52;;;;;;;12.65;2.75;;;9.20;99.90;;;;;;5032620;28;20049;-70
2022/09/21 00:29:18;;;;;;;6.05;2.88;;;;;;;;;;5032528;28;20419;-70
2022/09/21 00:31:44;;;;;;;5.50;2.83;;;;;;;;;;5031245;28;20044;-70
2022/09/21 00:34:10;;;;;;;5.60;2.85;;;;;;;;;;5031011;28;20525;-70
2022/09/21 00:36:36;;;;;;;5.93;2.78;;;;;;;;;;5032500;28;20068;-70
2022/09/21 00:39:02;;;;;;;6.72;3.22;;;9.00;99.90;;;;;;5031146;28;20041;-70
2022/09/21 00:41:30;;;;;;;4.15;2.50;;;8.90;99.90;;;;;;5030969;28;20141;-70
2022/09/21 00:44:15;;;;;;;7.85;2.85;;;9.00;99.90;;;;;;5014268;28;20119;-70
2022/09/21 00:46:41;;;;;;;6.13;2.35;;;8.90;99.90;;;;;;5032405;28;20041;-70
2022/09/21 00:49:09;;;;;;;5.72;2.60;;;8.90;99.90;;;;;;5032632;28;20120;-70
2022/09/21 00:51:35;;;;;;;5.97;2.42;;;9.00;99.90;;;;;;5032367;28;20089;-70
2022/09/21 00:54:06;;;;;;;5.28;2.42;;;8.90;99.90;;;;;;5032234;28;20038;-70
2022/09/21 00:56:33;;;;;;;6.95;2.92;;;9.00;99.90;;;;;;5030235;28;20053;-70
2022/09/21 00:58:58;;;;;;;3.70;2.50;;;8.90;99.90;;;;;;5030859;28;20046;-70
2022/09/21 01:01:24;;;;;;;8.93;3.72;;;8.80;99.90;;;;;;5032108;28;20060;-70
2022/09/21 01:03:51;;;;;;;4.38;2.60;;;8.80;99.90;;;;;;5031892;28;20094;-70
2022/09/21 01:06:19;;;;;;;4.93;2.47;;;8.80;99.90;;;;;;5032125;28;20041;-70
2022/09/21 01:08:51;;;;;;;3.80;2.35;;;8.70;99.90;;;;;;5030653;28;20084;-70
2022/09/21 01:11:39;;;;;;;5.40;2.35;;;8.70;99.90;;;;;;5030464;28;20033;-70
2022/09/21 01:14:23;;;;;;;4.82;2.50;;;8.80;99.90;;;;;;5030597;28;20407;-69
2022/09/21 01:17:17;;;;;;;3.42;2.30;;;8.80;99.90;;;;;;5030555;28;20091;-70
2022/09/21 01:19:46;;;;;;;;;;;8.80;99.90;;;;;;5030878;28;20041;-70
2022/09/21 01:22:41;;;;;;;4.13;2.42;;;8.60;99.90;;;;;;5031845;28;20275;-70
2022/09/21 01:25:23;;;;;;;4.82;2.63;;;8.80;99.90;;;;;;5030334;28;20041;-70
2022/09/21 01:28:02;;;;;;;7.28;2.58;;;8.80;99.90;;;;;;5031838;28;20204;-70
2022/09/21 01:30:29;;;;;;;7.50;2.55;;;;;;;;;;5043762;28;20076;-70
2022/09/21 01:33:03;;;;;;;4.82;2.28;;;8.60;99.90;;;;;;5051713;28;20044;-70
2022/09/21 01:35:37;;;;;;;4.05;2.25;;;8.70;99.90;;;;;;5050028;28;20037;-70
2022/09/21 01:38:05;;;;;;;;;;;8.70;99.90;;;;;;5052081;28;20041;-70
2022/09/21 01:40:37;;;;;;;3.53;2.25;;;8.60;99.90;;;;;;5050472;28;19916;-70
2022/09/21 01:43:05;;;;;;;6.05;2.38;;;8.50;99.90;;;;;;5050304;28;20048;-70
2022/09/21 01:45:35;;;;;;;5.20;2.30;;;8.70;99.90;;;;;;5050231;28;20041;-70
2022/09/21 01:48:01;;;;;;;6.65;2.67;;;8.50;99.90;;;;;;5050347;28;20410;-70
2022/09/21 01:50:31;;;;;;;3.35;2.00;;;8.50;99.90;;;;;;5050043;28;20037;-70
2022/09/21 01:53:30;;;;;;;5.50;2.33;;;8.30;99.90;;;;;;5050196;28;20403;-70
2022/09/21 01:56:00;;;;;;;3.45;1.95;;;8.40;99.90;;;;;;5051313;28;20119;-70
2022/09/21 01:58:50;;;;;;;3.42;2.42;;;8.50;99.90;;;;;;5050068;28;20044;-70
2022/09/21 02:01:20;;;;;;;3.58;2.33;;;8.30;99.90;;;;;;5051225;28;20450;-70
2022/09/21 02:04:03;;;;;;;3.38;2.05;;;8.30;99.90;;;;;;5050038;28;20037;-70
2022/09/21 02:06:30;;;;;;;4.70;2.72;;;8.50;99.90;;;;;;5052143;28;20044;-70
2022/09/21 02:08:56;;;;;;;4.15;2.40;;;8.40;99.90;;;;;;5053866;28;20045;-70
2022/09/21 02:11:22;;;;;;;3.38;2.03;;;8.40;99.90;;;;;;5054906;28;20044;-70
2022/09/21 02:13:53;;;;;;;6.20;2.28;;;8.60;99.90;;;;;;5053980;28;20040;-70
2022/09/21 02:16:43;;;;;;;3.63;2.10;;;8.30;99.90;;;;;;5055250;28;20052;-70
2022/09/21 02:19:10;;;;;;;5.00;1.88;;;;;;;;;;5053707;28;20072;-70
2022/09/21 02:21:47;;;;;;;7.28;2.40;;;8.30;99.90;;;;;;5053525;28;20055;-70
2022/09/21 02:24:31;;;;;;;4.82;2.15;;;8.40;99.90;;;;;;5053275;28;20052;-70
2022/09/21 02:27:01;;;;;;;;;;;8.60;99.90;;;;;;5054094;28;20041;-70
2022/09/21 02:29:38;;;;;;;4.68;2.33;;;8.20;99.90;;;;;;5054832;28;19921;-70
2022/09/21 02:32:32;;;;;;;4.97;2.15;;;8.20;99.90;;;;;;5053365;28;20037;-70
2022/09/21 02:35:14;;;;;;;6.55;2.08;;;8.10;99.90;;;;;;4992897;28;20132;-72
2022/09/21 02:37:47;;;;;;;4.05;2.05;;;8.20;99.90;;;;;;5053428;28;20124;-72
2022/09/21 02:40:28;;;;;;;4.80;1.90;;;8.20;99.90;;;;;;5054561;28;20572;-72
2022/09/21 02:43:04;;;;;;;3.05;2.25;;;8.10;99.90;;;;;;5053238;28;20043;-72
2022/09/21 02:45:34;;;;;;;4.82;2.22;;;8.00;99.90;;;;;;5054471;28;20471;-72
2022/09/21 02:48:05;;;;;;;4.72;2.53;;;8.10;99.90;;;;;;5053174;28;20045;-71
2022/09/21 02:50:51;;;;;;;4.15;2.10;;;8.20;99.90;;;;;;5053098;28;20110;-71
2022/09/21 02:53:27;;;;;;;2.88;1.95;;;8.30;99.90;;;;;;5054327;28;20111;-71
2022/09/21 02:55:55;;;;;;;4.50;2.20;;;8.00;99.90;;;;;;5054183;28;20737;-72
2022/09/21 02:58:23;;;;;;;3.28;1.98;;;8.00;99.90;;;;;;5053274;28;20376;-72
2022/09/21 03:00:49;;;;;;;3.55;2.20;;;8.10;99.90;;;;;;5054272;28;20041;-70
2022/09/21 03:03:20;;;;;;;8.48;2.40;;;8.10;99.90;;;;;;5054171;28;20052;-70
2022/09/21 03:05:48;;;;;;;3.38;1.98;;;8.10;99.90;;;;;;5052680;28;20041;-69
2022/09/21 03:08:15;;;;;;;6.45;1.98;;;8.20;99.90;;;;;;5052785;28;20093;-69
2022/09/21 03:10:41;;;;;;;15.48;4.65;;;8.10;99.90;;;;;;5052587;28;20037;-69
2022/09/21 03:13:10;;;;;;;4.70;2.15;;;8.00;99.90;;;;;;5054100;28;20040;-70
2022/09/21 03:15:37;;;;;;;7.05;1.90;;;;;;;;;;5053912;28;20033;-70
2022/09/21 03:18:04;;;;;;;3.78;2.00;;;8.10;99.90;;;;;;5052432;28;20506;-70
2022/09/21 03:20:33;;;;;;;4.40;2.53;;;7.90;99.90;;;;;;5054558;28;20044;-69
2022/09/21 03:23:00;;;;;;;4.72;2.22;;;8.00;99.90;;;;;;5053073;28;20041;-70
2022/09/21 03:25:26;;;;;;;2.63;2.00;;;7.90;99.90;;;;;;5052482;28;20051;-70
2022/09/21 03:27:52;;;;;;;4.72;2.20;;;7.90;99.90;;;;;;5053184;28;20036;-70
2022/09/21 03:30:22;;;;;;;4.00;2.20;;;7.80;99.90;;;;;;5054150;28;20122;-70
2022/09/21 03:32:52;;;;;;;4.03;2.00;;;7.80;99.90;;;;;;5052454;28;20125;-69
2022/09/21 03:35:20;;;;;;;4.10;2.22;;;7.70;99.90;;;;;;5052347;28;20123;-70
2022/09/21 03:37:47;;;;;;;5.38;2.13;;;7.80;99.90;;;;;;5052357;28;20037;-70
2022/09/21 03:40:13;;;;;;;3.42;2.13;;;7.80;99.90;;;;;;5053376;28;20085;-70
2022/09/21 03:42:40;;;;;;;4.35;2.45;;;7.90;99.90;;;;;;5053498;28;20094;-70
2022/09/21 03:45:06;;;;;;;5.10;2.33;;;;;;;;;;5054830;28;20041;-70
2022/09/21 03:47:32;;;;;;;4.07;2.47;;;;;;;;;;5057212;28;20593;-70
2022/09/21 03:49:58;;;;;;;4.88;2.22;;;;;;;;;;5056259;28;20083;-70
2022/09/21 03:52:24;;;;;;;4.63;2.30;;;;;;;;;;5038584;28;20125;-70
2022/09/21 03:54:49;;;;;;;6.32;2.38;;;7.80;99.90;;;;;;5051642;28;20161;-70
2022/09/21 03:57:15;;;;;;;3.88;2.15;;;7.90;99.90;;;;;;5052086;28;20076;-70
2022/09/21 03:59:41;;;;;;;4.32;1.98;;;;;;;;;;5036428;28;20402;-70
2022/09/21 04:02:07;;;;;;;2.88;1.80;;;7.80;99.90;;;;;;5051978;28;20167;-70
2022/09/21 04:04:33;;;;;;;4.15;2.05;;;;;;;;;;5052950;28;20120;-70
2022/09/21 04:06:59;;;;;;;3.00;2.22;;;;;;;;;;5053181;28;20037;-70
2022/09/21 04:09:25;;;;;;;2.58;1.90;;;;;;;;;;5051606;28;20055;-69
2022/09/21 04:11:52;;;;;;;3.42;1.95;;;;;;;;;;5051755;28;20055;-70
2022/09/21 04:14:18;;;;;;;2.17;1.85;;;7.60;99.90;;;;;;5052501;28;20453;-70
2022/09/21 04:16:44;;;;;;;6.72;2.10;;;7.90;99.90;;;;;;5051648;28;20047;-70
2022/09/21 04:19:10;;;;;;;6.05;2.25;;;7.70;99.90;;;;;;5051745;28;20491;-70
2022/09/21 04:21:36;;;;;;;6.18;2.80;;;7.80;99.90;;;;;;5052692;28;20124;-69
2022/09/21 04:24:03;;;;;;;4.40;2.33;;;;;;;;;;5052413;28;20036;-70
2022/09/21 04:26:31;;;;;;;3.33;2.08;;;7.70;99.90;;;;;;5051436;28;20048;-69
2022/09/21 04:28:58;;;;;;;3.50;2.05;;;7.60;99.90;;;;;;5051391;28;20380;-70
2022/09/21 04:31:25;;;;;;;2.47;1.95;;;7.60;99.90;;;;;;5051641;28;20045;-70
2022/09/21 04:33:52;;;;;;;3.15;2.03;;;7.50;99.90;;;;;;5052215;28;20483;-70
2022/09/21 04:36:18;;;;;;;3.53;2.20;;;7.50;99.90;;;;;;5052441;28;20033;-70
2022/09/21 04:38:45;;;;;;;7.60;3.40;;;;;;;;;;5051036;28;20111;-70
2022/09/21 04:41:11;;;;;;;5.55;2.25;;;7.50;99.90;;;;;;5052241;28;20562;-70
2022/09/21 04:43:37;;;;;;;2.90;1.90;;;7.50;99.90;;;;;;5034262;28;20029;-70
2022/09/21 04:46:08;;;;;;;2.55;1.83;;;7.60;99.90;;;;;;5050708;28;20052;-70
2022/09/21 04:48:34;;;;;;;5.80;2.40;;;7.50;99.90;;;;;;5034368;28;20498;-70
2022/09/21 04:51:00;;;;;;;3.33;2.30;;;7.50;99.90;;;;;;5050882;28;20126;-70
2022/09/21 04:53:26;;;;;;;3.72;2.20;;;7.60;99.90;;;;;;5050875;28;20044;-70
2022/09/21 04:55:52;;;;;;;2.92;2.22;;;;;;;;;;5050593;28;20025;-70
2022/09/21 04:58:18;;;;;;;2.97;2.22;;;;;;;;;;5050991;28;20040;-70
2022/09/21 05:00:44;;;;;;;8.57;3.05;;;;;;;;;;5050558;28;20498;-70
2022/09/21 05:03:10;;;;;;;4.00;3.03;;;;;;;;;;5051014;28;20048;-70
2022/09/21 05:05:35;;;;;;;3.83;3.10;;;7.60;99.90;;;;;;5051809;28;20546;-70
2022/09/21 05:08:01;;;;;;;5.68;3.25;;;;;;;;;;5050735;28;20037;-70
2022/09/21 05:10:27;;;;;;;4.18;2.70;;;7.60;99.90;;;;;;5050299;28;20077;-70
2022/09/21 05:12:53;;;;;;;4.93;2.80;;;7.40;99.90;;;;;;5050553;28;20083;-70
2022/09/21 05:15:20;;;;;;;4.95;2.65;;;7.50;99.90;;;;;;5050205;28;20072;-70
2022/09/21 05:17:46;;;;;;;6.15;2.40;;;7.50;99.90;;;;;;5051937;28;20041;-70
2022/09/21 05:20:12;;;;;;;5.45;2.03;;;7.40;99.90;;;;;;5050513;28;20490;-69
2022/09/21 05:22:37;;;;;;;4.40;2.20;;;7.50;99.90;;;;;;5050446;28;20068;-69
2022/09/21 05:25:03;;;;;;;2.83;1.98;;;;;;;;;;5050156;28;20486;-70
2022/09/21 05:27:29;;;;;;;3.30;2.15;;;;;;;;;;5050287;28;20219;-70
2022/09/21 05:29:55;;;;;;;4.95;2.55;;;;;;;;;;5050332;28;20136;-69
2022/09/21 05:32:31;;;;;;;4.70;2.00;;;7.60;99.90;;;;;;5050283;28;20037;-70
2022/09/21 05:35:06;;;;;;;11.23;3.60;;;7.50;99.90;;;;;;5050485;28;20041;-70
2022/09/21 05:37:53;;;;;;;9.88;3.30;;;7.50;99.90;;;;;;5050457;28;20045;-70
2022/09/21 05:40:19;;;;;;;13.10;3.60;;;7.60;99.90;;;;;;5050493;28;20037;-69
2022/09/21 05:42:45;;;;;;;6.97;3.65;;;7.60;99.90;;;;;;5053208;28;20473;-70
2022/09/21 05:45:16;;;;;;;7.20;4.05;;;7.60;99.90;;;;;;5054067;28;20037;-70
2022/09/21 05:47:59;;;;;;;5.38;3.20;;;7.50;99.90;;;;;;5054363;28;20068;-70
2022/09/21 05:50:52;;;;;;;10.35;3.50;;;7.70;99.90;;;;;;5055345;28;20406;-70
2022/09/21 05:53:50;;;;;;;7.20;2.80;;;7.60;99.90;;;;;;5055938;28;20037;-69
2022/09/21 05:56:38;;;;;;;5.80;3.15;;;7.70;99.90;;;;;;5037519;28;20194;-69
2022/09/21 05:59:30;;;;;;;5.70;3.70;;;7.60;99.90;;;;;;5055858;28;20033;-69
2022/09/21 06:02:14;;;;;;;6.47;3.67;;;7.60;99.90;;;;;;5039650;28;20102;-69
2022/09/21 06:04:40;;;;;;;6.03;3.10;;;7.70;99.90;;;;;;5032092;28;20531;-69
2022/09/21 06:07:06;;;;;;;5.75;3.78;;;;;;;;;;5031590;28;20076;-69
2022/09/21 06:09:32;;;;;;;8.10;4.10;;;;;;;;;;5030653;28;20041;-69
2022/09/21 06:11:58;;;;;;;7.03;4.07;;;;;;;;;;5028284;28;20134;-69
2022/09/21 06:14:25;;;;;;;9.73;4.60;;;;;;;;;;5031097;28;20116;-69
2022/09/21 06:16:51;;;;;;;9.35;5.53;;;8.00;99.90;;;;;;5006100;28;20533;-69
2022/09/21 06:19:17;;;;;;;7.75;4.30;;;7.70;99.90;;;;;;5030338;28;20041;-69
2022/09/21 06:21:43;;;;;;;7.00;3.65;;;;;;;;;;5030372;28;20438;-69
2022/09/21 06:24:09;;;;;;;6.20;3.95;;;8.20;99.90;;;;;;5031763;28;20079;-70
2022/09/21 06:26:35;;;;;;;14.00;4.47;;;7.90;99.90;;;;;;5034551;28;20479;-71
2022/09/21 06:29:01;;;;;;;7.97;4.10;;;;;;;;;;5033824;28;20048;-70
2022/09/21 06:31:27;;;;;;;18.83;4.80;;;;;;;;;;5033769;28;20041;-70
2022/09/21 06:33:53;;;;;;;15.05;4.22;;;;;;;;;;5032901;28;20041;-72
2022/09/21 06:36:19;;;;;;;11.23;4.40;;;;;;;;;;5034645;28;20041;-72
2022/09/21 06:38:45;;;;;;;14.18;4.20;;;;;;;;;;5033643;28;20091;-72
2022/09/21 06:41:11;;;;;;;9.10;3.92;;;8.50;99.90;;;;;;5033384;28;20037;-71
2022/09/21 06:43:37;;;;;;;8.65;4.22;;;;;;;;;;5039781;28;20021;-73
2022/09/21 06:46:03;;;;;;;10.90;4.43;;;8.60;99.90;;;;;;5045868;28;20072;-73
2022/09/21 06:48:31;;;;;;;13.43;5.18;;;8.70;99.90;;;;;;5053185;28;20033;-73
2022/09/21 06:50:58;;;;;;;10.65;4.90;;;8.80;99.90;;;;;;5053142;28;20059;-73
2022/09/21 06:53:24;;;;;;;8.95;4.40;;;;;;;;;;5035443;28;20041;-76
2022/09/21 06:55:51;;;;;;;9.80;4.25;;;;;;;;;;5039727;28;20029;-75
2022/09/21 06:58:17;;;;;;;10.20;4.50;;;9.10;99.90;;;;;;5016822;28;20037;-75
2022/09/21 07:00:42;;;;;;;7.13;4.35;;;9.30;99.90;;;;;;5033324;28;20038;-76
2022/09/21 07:03:14;;;;;;;7.18;4.03;;;9.50;99.90;;;;;;5036278;28;20095;-75
2022/09/21 07:05:44;;;;;;;9.65;4.47;;;9.50;99.90;;;;;;5036358;28;20494;-75
2022/09/21 07:08:09;;;;;;;11.10;3.97;;;9.60;99.90;;;;;;5051344;28;20075;-76
2022/09/21 07:10:35;;;;;;;5.68;3.58;;;9.90;99.90;;;;;;5017891;28;20053;-75
2022/09/21 07:13:02;;;;;;;6.57;3.75;;;9.90;99.90;;;;;;5037212;28;20454;-75
2022/09/21 07:15:29;;;;;;;10.73;4.22;;;10.00;99.90;;;;;;5035852;28;20088;-75
2022/09/21 07:17:55;;;;;;;13.55;4.30;;;;;;;;;;5032347;28;20113;-75
2022/09/21 07:20:22;;;;;;;7.68;4.45;;;;;;;;;;5017172;28;20136;-74
2022/09/21 07:22:48;;;;;;;11.45;3.97;;;;;;;;;;5029680;28;20044;-76
2022/09/21 07:25:14;;;;;;;5.40;3.30;;;;;;;;;;5033126;28;20041;-75
2022/09/21 07:27:40;;;;;;;8.50;3.33;;;;;;;;;;5034913;28;20064;-75
2022/09/21 07:30:08;;;;;;;12.05;3.47;;;10.70;99.90;;;;;;5037860;28;20167;-76
2022/09/21 07:32:34;;;;;;;6.88;2.42;;;;;;;;;;5043798;28;20048;-76
2022/09/21 07:35:01;;;;;;;5.07;2.75;;;;;;;;;;5033391;28;20030;-76
2022/09/21 07:37:27;;;;;;;5.50;2.63;;;12.00;99.90;;;;;;5031944;28;20045;-76
2022/09/21 07:39:53;;;;;;;4.07;2.55;;;11.10;99.90;;;;;;5033499;28;20056;-76
2022/09/21 07:42:21;;;;;;;6.50;2.35;;;11.30;99.90;;;;;;5033558;28;20048;-76
2022/09/21 07:44:47;;;;;;;3.45;2.40;;;;;;;;;;5032354;28;20048;-76
2022/09/21 07:47:14;;;;;;;10.02;2.30;;;11.60;99.90;;;;;;5032893;28;20466;-76
2022/09/21 07:49:40;;;;;;;8.82;2.58;;;;;;;;;;5035768;28;20033;-76
2022/09/21 07:52:07;;;;;;;3.70;2.40;;;11.80;99.90;;;;;;5032303;28;20037;-75
2022/09/21 07:54:34;;;;;;;5.72;2.45;;;11.90;99.90;;;;;;5031264;28;20247;-75
2022/09/21 07:59:44;;;;;;;11.77;2.67;;;12.30;99.90;;;;;;5031852;28;20041;-75
2022/09/21 08:02:11;;;;;;;6.72;1.70;;;;;;;;;;5031653;28;20080;-75
2022/09/21 08:04:36;;;;;;;6.78;1.98;;;12.50;99.90;;;;;;5030806;28;20048;-75
2022/09/21 08:07:02;;;;;;;6.38;1.95;;;;;;;;;;5031297;28;20041;-76
2022/09/21 08:09:28;;;;;;;7.70;2.30;;;;;;;;;;5031321;28;20120;-75
2022/09/21 08:11:54;;;;;;;6.85;1.55;;;12.90;99.90;;;;;;5031505;28;20750;-75
2022/09/21 08:14:20;;;;;;;4.90;1.70;;;12.90;99.90;;;;;;5031613;28;20411;-76
2022/09/21 08:16:46;;;;;;;8.73;1.45;;;12.90;99.90;;;;;;5031584;28;20041;-76
2022/09/21 08:19:13;;;;;;;9.02;1.60;;;13.20;99.90;;;;;;5032314;28;20037;-77
2022/09/21 08:21:39;;;;;;;3.45;1.10;;;;;;;;;;5033931;28;20526;-77
2022/09/21 08:24:05;;;;;;;11.40;1.30;;;;;;;;;;5031606;28;20500;-77
2022/09/21 08:26:32;;;;;;;6.05;1.20;;;;;;;;;;5031766;28;20581;-77
2022/09/21 08:28:58;;;;;;;2.67;1.10;;;13.60;99.90;;;;;;5031399;28;20045;-76
2022/09/21 08:31:24;;;;;;;9.10;1.65;;;13.70;99.90;;;;;;5031492;28;20430;-77
2022/09/21 08:33:51;;;;;;;5.30;0.98;;;13.50;99.90;;;;;;5031436;28;20124;-77
2022/09/21 08:36:17;;;;;;;14.40;1.80;;;13.60;99.90;;;;;;5015533;28;20037;-77
2022/09/21 08:38:43;;;;;;;6.90;1.02;;;;;;;;;;5031978;28;20042;-77
2022/09/21 08:41:14;;;;;;;3.75;1.20;;;13.90;99.90;;;;;;5031488;28;20494;-77
2022/09/21 08:43:48;;;;;;;3.90;1.52;;;14.00;99.90;;;;;;5014527;28;20045;-77
2022/09/21 08:46:17;;;;;;;3.25;1.05;;;14.10;99.90;;;;;;5031038;28;20241;-77
2022/09/21 08:48:49;;;;;;;5.35;1.00;;;14.00;99.90;;;;;;5032347;28;20076;-77
2022/09/21 08:51:22;;;;;;;3.85;1.20;;;14.00;99.90;;;;;;5024087;28;20037;-73
2022/09/21 08:53:51;;;;;;;5.20;1.20;;;14.20;99.90;;;;;;5030222;28;20069;-73
2022/09/21 08:56:19;;;;;;;6.78;1.27;;;14.30;99.90;;;;;;5030539;28;20116;-74
2022/09/21 08:58:44;;;;;;;5.32;1.60;;;14.30;99.90;;;;;;5031601;28;20043;-71
2022/09/21 09:01:20;;;;;;;6.47;1.35;;;14.40;99.90;;;;;;5030900;28;20041;-70
2022/09/21 09:03:46;;;;;;;6.30;1.13;;;;;;;;;;5025919;28;20052;-70
2022/09/21 09:06:39;;;;;;;4.40;0.80;;;14.70;99.90;;;;;;5029573;28;20531;-71
2022/09/21 09:09:43;;;;;;;6.17;1.57;;;14.40;99.90;;;;;;5031566;28;20048;-71
2022/09/21 09:13:00;;;;;;;1.95;0.60;;;14.50;99.90;;;;;;5009792;28;20280;-71
2022/09/21 09:15:56;;;;;;;7.68;1.30;;;14.70;99.90;;;;;;4989691;28;20053;-71
2022/09/21 09:18:46;;;;;;;4.43;1.23;;;14.80;99.90;;;;;;5025688;28;20053;-71
2022/09/21 09:21:18;;;;;;;6.50;1.45;;;14.40;99.90;;;;;;5031801;28;20041;-71
2022/09/21 09:23:56;;;;;;;5.30;1.00;;;14.60;99.90;;;;;;5022922;28;20084;-71
2022/09/21 09:26:41;;;;;;;4.07;0.90;;;14.50;99.90;;;;;;5020425;28;20110;-71
2022/09/21 09:29:19;;;;;;;7.15;1.05;;;14.60;99.90;;;;;;5019137;28;20236;-70
2022/09/21 09:31:45;;;;;;;4.15;0.90;;;;;;;;;;5012884;28;20458;-74
2022/09/21 09:34:17;;;;;;;6.38;0.90;;;14.30;99.90;;;;;;5027524;28;20632;-70
2022/09/21 09:36:47;;;;;;;4.40;1.30;;;14.50;99.90;;;;;;5028730;28;20033;-70
2022/09/21 09:39:14;;;;;;;2.55;0.70;;;15.00;99.90;;;;;;5029424;28;20049;-69
2022/09/21 09:42:04;;;;;;;5.32;0.80;;;14.90;99.90;;;;;;5029285;28;20083;-70
2022/09/21 09:44:59;;;;;;;4.72;1.42;;;15.00;99.90;;;;;;5028019;28;20099;-71
2022/09/21 09:47:43;;;;;;;5.60;1.95;;;15.20;99.90;;;;;;4975651;28;20059;-71
2022/09/21 09:50:24;;;;;;;9.00;1.63;;;15.10;99.90;;;;;;5030397;28;20030;-70
2022/09/21 09:52:53;;;;;;;5.28;0.90;;;14.90;99.90;;;;;;5028000;28;20518;-71
2022/09/21 09:55:24;;;;;;;4.93;0.77;;;14.70;99.90;;;;;;5030446;28;20112;-71
2022/09/21 09:57:53;;;;;;;3.88;1.13;;;14.80;99.90;;;;;;5013629;28;20038;-71
2022/09/21 10:00:20;;;;;;;4.18;0.80;;;14.70;99.90;;;;;;5028416;28;20041;-70
2022/09/21 10:02:54;;;;;;;4.28;0.75;;;14.60;99.90;;;;;;5030964;28;20128;-70
2022/09/21 10:05:22;;;;;;;6.47;0.85;;;14.60;99.90;;;;;;5012737;28;20171;-70
2022/09/21 10:07:51;;;;;;;5.75;1.58;;;14.60;99.90;;;;;;5028498;28;20480;-70
2022/09/21 10:10:28;;;;;;;4.93;0.95;;;14.40;99.90;;;;;;5029620;28;20107;-70
2022/09/21 10:12:56;;;;;;;5.30;1.08;;;14.50;99.90;;;;;;5029263;28;20081;-70
2022/09/21 10:15:23;;;;;;;7.35;0.90;;;14.90;99.90;;;;;;5030720;28;20033;-71
2022/09/21 10:18:01;;;;;;;3.28;0.70;;;15.00;99.90;;;;;;5029780;28;20038;-70
2022/09/21 10:20:27;;;;;;;5.07;1.10;;;15.00;99.90;;;;;;5031244;28;20099;-73
2022/09/21 10:22:55;;;;;;;2.08;0.70;;;14.90;99.90;;;;;;5013289;28;20042;-74
2022/09/21 10:25:21;;;;;;;7.97;0.98;;;14.80;99.90;;;;;;5028329;28;20125;-72
2022/09/21 10:27:50;;;;;;;5.53;0.93;;;14.70;99.90;;;;;;5031208;28;20140;-71
2022/09/21 10:30:37;;;;;;;4.85;0.80;;;14.90;99.90;;;;;;5032586;28;20037;-72
2022/09/21 10:33:16;;;;;;;4.93;0.82;;;15.40;99.90;;;;;;5034687;28;20142;-71
2022/09/21 10:35:50;;;;;;;4.60;1.25;;;15.60;99.90;;;;;;5061141;22;20041;-72
2022/09/21 10:38:26;;;;;;;1.48;0.60;;;15.90;99.90;;;;;;5071429;28;20040;-71
2022/09/21 10:40:53;;;;;;;3.40;0.90;;;15.80;99.90;;;;;;5047621;28;20084;-72
2022/09/21 10:43:26;;;;;;;7.28;1.20;;;16.20;99.90;;;;;;5054163;28;20556;-71
2022/09/21 10:46:01;;;;;;;9.07;0.90;;;16.40;99.90;;;;;;5056754;28;20036;-72
2022/09/21 10:48:27;;;;;;;3.20;0.60;;;16.30;99.90;;;;;;5050474;28;20087;-72
2022/09/21 10:50:54;;;;;;;4.70;1.00;;;16.30;99.90;;;;;;5058115;28;20478;-72
2022/09/21 10:53:27;;;;;;;5.63;1.00;;;16.60;99.90;;;;;;5050400;28;20052;-72
2022/09/21 10:56:01;;;;;;;5.97;1.10;;;16.60;99.90;;;;;;5046617;28;20075;-72
2022/09/21 10:58:27;;;;;;;6.05;1.20;;;16.50;99.90;;;;;;5050041;28;20503;-72
2022/09/21 11:00:54;;;;;;;4.10;0.90;;;16.70;99.90;;;;;;5045429;28;20068;-71
2022/09/21 11:03:29;;;;;;;5.97;0.90;;;16.90;99.90;;;;;;5050202;28;20040;-72
2022/09/21 11:05:58;;;;;;;6.43;1.23;;;17.00;99.90;;;;;;5080565;28;20044;-73
2022/09/21 11:08:37;;;;;;;3.78;1.13;;;17.40;99.90;;;;;;5079294;22;20049;-71
2022/09/21 11:11:20;;;;;;;4.47;0.90;;;17.00;99.90;;;;;;5065763;28;20122;-71
2022/09/21 11:13:55;;;;;;;3.63;0.73;;;17.20;99.90;;;;;;5061866;28;20037;-71
2022/09/21 11:16:33;;;;;;;4.97;1.27;;;18.50;99.90;;;;;;5059352;28;20045;-71
2022/09/21 11:19:14;;;;;;;6.90;1.00;;;17.60;99.90;;;;;;5037599;28;20037;-71
2022/09/21 11:21:54;;;;;;;2.92;0.75;;;17.50;99.90;;;;;;5063833;28;20073;-72
2022/09/21 11:24:50;;;;;;;5.78;1.10;;;17.30;99.60;;;;;;5052678;28;20044;-72
2022/09/21 11:27:27;;;;;;;5.55;0.80;;;17.30;99.90;;;;;;5054914;28;20336;-71
2022/09/21 11:30:02;;;;;;;3.17;0.65;;;19.20;99.90;;;;;;5056471;28;20112;-72
2022/09/21 11:32:49;;;;;;;6.30;1.20;;;17.50;99.60;;;;;;5071735;28;20102;-71
2022/09/21 11:35:52;;;;;;;3.67;0.70;;;17.40;98.80;;;;;;5065795;28;20041;-72
2022/09/21 11:38:47;;;;;;;2.53;0.50;;;17.50;98.10;;;;;;5072041;28;20051;-71
2022/09/21 11:41:41;;;;;;;6.13;0.73;;;17.70;97.70;;;;;;5053802;28;20024;-71
2022/09/21 11:44:19;;;;;;;3.58;0.70;;;17.80;99.30;;;;;;5051582;28;20045;-71
2022/09/21 11:47:20;;;;;;;4.32;0.68;;;18.60;98.00;;;;;;5060557;28;20119;-71
2022/09/21 11:50:05;;;;;;;4.50;0.60;;;17.60;97.10;;;;;;5054764;28;20036;-71
2022/09/21 11:52:45;;;;;;;4.82;0.73;;;18.30;98.90;;;;;;5070558;28;20506;-71
2022/09/21 11:55:20;;;;;;;2.53;0.60;;;17.70;98.30;;;;;;5071640;28;20036;-71
2022/09/21 11:58:01;;;;;;;2.58;1.00;;;17.90;99.40;;;;;;5073099;28;20040;-71
2022/09/21 12:00:32;;;;;;;2.13;0.68;;;18.00;98.60;;;;;;5071578;28;20410;-72
2022/09/21 12:03:29;;;;;;;1.67;0.40;;;17.90;98.40;;;;;;5070864;28;20076;-72
2022/09/21 12:06:20;;;;;;;2.42;0.68;;;18.00;98.30;;;;;;5052579;28;20045;-71
2022/09/21 12:08:57;;;;;;;6.30;1.58;;;18.10;98.60;;;;;;5052252;28;20422;-71
2022/09/21 12:11:47;;;;;;;8.02;1.45;;;18.00;97.80;;;;;;5066370;28;20037;-71
2022/09/21 12:14:32;;;;;;;3.65;0.70;;;18.20;98.50;;;;;;5059908;28;20490;-71
2022/09/21 12:17:04;;;;;;;3.72;0.70;;;18.00;98.00;;;;;;5062309;28;20406;-71
2022/09/21 12:20:00;;;;;;;4.30;0.63;;;18.00;98.10;;;;;;5062740;28;20076;-71
2022/09/21 12:22:37;;;;;;;3.17;0.77;;;18.10;98.40;;;;;;5051960;28;20124;-71
2022/09/21 12:25:12;;;;;;;3.50;0.82;;;19.20;98.90;;;;;;5050712;28;20353;-71
2022/09/21 12:27:53;;;;;;;4.15;1.08;;;18.30;99.80;;;;;;5057994;28;20040;-71
2022/09/21 12:30:21;;;;;;;3.08;0.60;;;18.20;98.70;;;;;;5060668;28;20037;-71
2022/09/21 12:33:18;;;;;;;4.85;0.98;;;18.20;98.20;;;;;;5051862;28;20040;-71
2022/09/21 12:35:47;;;;;;;1.70;0.65;;;18.40;98.10;;;;;;5071525;28;20048;-71
2022/09/21 12:38:26;;;;;;;2.03;0.65;;;18.80;98.50;;;;;;5058840;28;20064;-71
2022/09/21 12:41:02;;;;;;;5.43;0.93;;;18.00;98.40;;;;;;5053584;28;20040;-71
2022/09/21 12:43:45;;;;;;;3.03;0.75;;;17.80;98.00;;;;;;5059895;28;20112;-71
2022/09/21 12:46:30;;;;;;;5.68;1.25;;;18.90;98.50;;;;;;5070363;28;20460;-71
2022/09/21 12:48:59;;;;;;;2.92;0.68;;;17.70;97.90;;;;;;5064159;28;20119;-71
2022/09/21 12:51:35;;;;;;;2.17;0.80;;;17.60;99.20;;;;;;5066459;28;20037;-71
2022/09/21 12:54:15;;;;;;;4.22;0.90;;;17.50;98.40;;;;;;5047698;28;20029;-71
2022/09/21 12:56:55;;;;;;;2.90;0.50;;;17.20;98.10;;;;;;5067951;28;20119;-71
2022/09/21 12:59:35;;;;;;;5.93;1.08;;;17.40;96.90;;;;;;5070561;28;20644;-71
2022/09/21 13:02:25;;;;;;;4.18;0.90;;;17.40;97.10;;;;;;5068405;28;20083;-71
2022/09/21 13:05:03;;;;;;;3.83;1.05;;;17.90;96.60;;;;;;5050113;28;20076;-71
2022/09/21 13:07:59;;;;;;;3.05;0.68;;;18.10;98.20;;;;;;5064720;28;20101;-72
2022/09/21 13:10:30;;;;;;;2.55;0.60;;;18.10;96.60;;;;;;5070369;28;20040;-71
2022/09/21 13:13:00;;;;;;;3.85;0.93;;;18.60;96.70;;;;;;5062554;28;20040;-71
2022/09/21 13:15:30;;;;;;;1.85;0.52;;;18.20;97.80;;;;;;5068683;28;20086;-71
2022/09/21 13:18:04;;;;;;;2.47;0.50;;;18.50;97.10;;;;;;5070664;28;20473;-71
2022/09/21 13:20:36;;;;;;;1.90;0.60;;;18.50;97.80;;;;;;5067320;28;20556;-71
2022/09/21 13:23:02;;;;;;;1.90;0.68;;;18.70;97.60;;;;;;5033637;28;20048;-71
2022/09/21 13:25:33;;;;;;;2.83;0.60;;;18.00;97.70;;;;;;5049988;28;20124;-71
2022/09/21 13:28:18;;;;;;;3.13;0.70;;;18.00;97.70;;;;;;5059145;28;20449;-72
2022/09/21 13:31:02;;;;;;;1.92;0.50;;;17.60;97.40;;;;;;5050204;28;20403;-71
2022/09/21 13:33:30;;;;;;;2.88;0.70;;;18.40;98.00;;;;;;5032471;28;20041;-71
2022/09/21 13:35:59;;;;;;;4.50;1.58;;;17.60;97.90;;;;;;5056823;28;20045;-71
2022/09/21 13:38:53;;;;;;;1.80;0.75;;;17.30;97.90;;;;;;5052750;28;20123;-71